Pisco, Peru

2:52 PM -05 en Marzo 28, 2017 (GMT -0500)
Pisco | | Change Station

Alt 36 ft 13.74 °S, 76.22 °W | Updated 52 minutes ago

Despejado
Despejado
86 ° F
Sensación térmica 87 ° F
N
15
Viento Variable Viento desde SO

Hoy
Alta -- | Baja -- ° F
--% Posibilidad de precipitaciones
Ayer
Alta -- | Baja -- ° F
Precip. -- pul
Presión 29.83 pul
Visibilidad -9999.0 Millas
Nubes
Índice de calor 87 ° F
Punto de rocío 64 ° F
Humedad 48%
Precipitaciones 0.00 pul
Espesor de la nieve No disponible.
6:09 AM 6:10 PM
Luna nueva, 1% visible
METAR SPSO 281900Z 23013KT CAVOK 30/18 Q1010 RMK SCT230 BIRD HAZARD RWY 22/04 PP000
Presión 29.83 pul
Visibilidad -9999.0 Millas
Nubes
Índice de calor 87 ° F
Punto de rocío 64 ° F
Humedad 48%
Precipitaciones 0.00 pul
Espesor de la nieve No disponible.
6:09 AM 6:10 PM
Luna nueva, 1% visible
METAR SPSO 281900Z 23013KT CAVOK 30/18 Q1010 RMK SCT230 BIRD HAZARD RWY 22/04 PP000

Get Severe Weather Alerts

Thanks for signing up!

Be on the lookout for a verification email in your inbox.

You'll start receiving the daily forecast at 8 AM.

×

10-Day Weather Forecast

No radar image for this location.
×

Almanac

Astronomía

Mar. 28, 2017 Salida Puesta
Hora real
Crepúsculo civil
Crepúsculo náutico
Crepúsculo astronómico
Luna
Horas de luz
Horas de luz
Tomorrow will be .
, % of the Moon is Illuminated

Extremos de hoy

Máximos del país Bajas del país

Community

WunderPhotos

Upload Photos

1,962,540 ¡fotos cargadas!

WunderBlog® & News

Nearby

Calidad del aire

  Calidad del aire Índice AQ Contaminante
Not available.

Grosos de nieve

Estación Profundido Altura

Actividad de terremotos

Ciudad Distance Mag. Tiempo y dato
Magnitud mínima muestra es 2,5.

Actividad de terremotos

Ciudad Distance Mag. Tiempo y dato
Magnitud mínima muestra es 2,5.

Temperaturas de aguas costeras

Lugar Temperatura

Stations

Estaciones meteorológicas cercanas

Ubicación de la estación Temp. Vientos helados Punto de rocío Humedad Viento Precip. Alt Actualizado Tipo